Hovedside
METAR-TAF:

METAR-TAF

Lufthavner :

Kuwait, Kuwait

breddegrad: 29-13N, lengdegrad: 047-59E, høyde over havet: 55 m

Gjeldene værobservasjon

Denne rapporten ble laget for 52 minutter siden, klokken 04:00 UTC
Vind 17 kt fra Nord
Temperatur 34°C
Luftfuktighet 22%
Trykk 1004 hPa
Sikt 10 km eller mer
ingen skyer under 1500 m og ingen bygeskyer

METAR: OKBK 210400Z 36017KT CAVOK 34/09 Q1004 NOSIG

Tid: 07:52 (04:52 UTC)

Varsel

Denne rapporten ble laget for 6 timer og 7 minutter siden, klokken 22:45 UTC
Varsel gyldig fra 21. klokken 00 UTC til 22. klokken 06 UTC
Vind 12 kt fra Nordvest med vindkast opp mot 25 kt
Sikt: 6000 m
Skyfri himmel
Midlertidig
fra 21. klokken 00 UTC til 21. klokken 06 UTC
Sikt: 3000 m
støvdrev
Midlertidig
fra 21. klokken 06 UTC til 21. klokken 15 UTC
Sikt: 1500 m
støvdrev

TAF: OKBK 202245Z 2100/2206 32012G25KT 6000 SKC TEMPO 2100/2106 3000 BLDU TEMPO 2106/2115 1500 BLDU

Værobservasjoner og værvarsel for over 4000 flyplasser (METAR- og TAF-rapporter).

Tilgjengelige stasjoner er representert av de røde og gule prikkene på kartet.

Hold musepekeren over prikken for å se navnet på stasjonen.

Klikk så for å se værobservasjoner og -varsler.

For å forandre kartet kan du klikke på den grønne knappen med svart kryss for å zoome inn, på den grønne knappen med strek for å zoome ut, eller på de grønne pilene for å se tilstøtende kart.


METAR-TAF: